• Join FlightAware (Why Join?)
  • Login
  • US Flag 
05:19PM EDT


 

Airport Tracker/Info


-or-


 

Live Flight TrackerFlight Track Log ✈ CES2307 ✈ 01-Apr-2014 ✈ ZLXY / XIY - ZGKL / KWL

Flight Track Log - Related Links

Times and Time Zones

All times are in EDT time to prevent confusion due to time zone crossing. See the CES2307 flight status page for this flight to view local times or setup timezone preferences in your user account.

Time Position Orientation Groundspeed Altitude Reporting Facility
EDT Latitude Longitude Course Direction KTS MPH feet Rate Location/Type
08:07AM 33.5038 108.8951 173° South  Level Estimated
08:08AM 33.3990 108.9108 173° South  Level Estimated
08:09AM 33.2942 108.9265 173° South  Level Estimated
08:10AM 33.1894 108.9422 173° South  Level Estimated
08:11AM 33.0845 108.9578 173° South  Level Estimated
08:12AM 32.9797 108.9734 173° South  Level Estimated
08:13AM 32.8749 108.9890 173° South  Level Estimated
08:14AM 32.7701 109.0045 173° South  Level Estimated
08:15AM 32.6652 109.0200 173° South  Level Estimated
08:16AM 32.5604 109.0355 173° South  Level Estimated
08:17AM 32.4556 109.0509 173° South  Level Estimated
08:18AM 32.3507 109.0663 173° South  Level Estimated
08:19AM 32.2459 109.0816 173° South  Level Estimated
08:20AM 32.1410 109.0969 173° South  Level Estimated
08:21AM 32.0362 109.1122 173° South  Level Estimated
08:22AM 31.9314 109.1274 173° South  Level Estimated
08:23AM 31.8265 109.1426 173° South  Level Estimated
08:24AM 31.7216 109.1578 173° South  Level Estimated
08:25AM 31.6168 109.1730 173° South  Level Estimated
08:26AM 31.5119 109.1880 173° South  Level Estimated
08:27AM 31.4071 109.2031 173° South  Level Estimated
08:28AM 31.3022 109.2181 173° South  Level Estimated
08:29AM 31.1974 109.2331 173° South  Level Estimated
08:30AM 31.0925 109.2481 173° South  Level Estimated
08:31AM 30.9876 109.2630 173° South  Level Estimated
08:32AM 30.8828 109.2779 173° South  Level Estimated
08:33AM 30.7779 109.2928 173° South  Level Estimated
08:34AM 30.6731 109.3077 173° South  Level Estimated
08:35AM 30.5682 109.3225 173° South  Level Estimated
08:36AM 30.4633 109.3372 173° South  Level Estimated
08:37AM 30.3584 109.3520 173° South  Level Estimated
08:38AM 30.2536 109.3667 173° South  Level Estimated
08:39AM 30.1487 109.3814 173° South  Level Estimated
08:40AM 30.0438 109.3960 173° South  Level Estimated
08:41AM 29.9389 109.4106 173° South  Level Estimated
08:42AM 29.8341 109.4252 173° South  Level Estimated
08:43AM 29.7292 109.4398 173° South  Level Estimated
08:44AM 29.6243 109.4543 173° South  Level Estimated
08:45AM 29.5194 109.4688 173° South  Level Estimated
08:46AM 29.4145 109.4832 173° South  Level Estimated
08:47AM 29.3096 109.4977 173° South  Level Estimated
08:48AM 29.2048 109.5121 173° South  Level Estimated
08:49AM 29.0999 109.5265 173° South  Level Estimated
08:50AM 28.9950 109.5408 173° South  Level Estimated
08:51AM 28.8901 109.5551 173° South  Level Estimated
08:52AM 28.7852 109.5694 173° South  Level Estimated
08:53AM 28.6803 109.5837 173° South  Level Estimated
08:54AM 28.5754 109.5979 173° South  Level Estimated
08:55AM 28.4705 109.6121 173° South  Level Estimated
08:56AM 28.3656 109.6263 173° South  Level Estimated
08:57AM 28.2607 109.6404 173° South  Level Estimated
08:58AM 28.1558 109.6545 173° South  Level Estimated
08:59AM 28.0509 109.6686 173° South  Level Estimated
09:00AM 27.9460 109.6827 173° South  Level Estimated
09:01AM 27.8410 109.6967 173° South  Level Estimated
09:02AM 27.7361 109.7107 173° South  Level Estimated
09:03AM 27.6312 109.7247 173° South  Level Estimated
09:04AM 27.5263 109.7387 173° South  Level Estimated
09:05AM 27.4214 109.7526 173° South  Level Estimated
09:06AM 27.3165 109.7665 173° South  Level Estimated
09:07AM 27.2116 109.7804 173° South  Level Estimated
09:08AM 27.1066 109.7942 173° South  Level Estimated
09:09AM 27.0017 109.8080 173° South  Level Estimated
09:10AM 26.8968 109.8218 173° South  Level Estimated
09:11AM 26.7919 109.8356 173° South  Level Estimated
09:12AM 26.6870 109.8494 173° South  Level Estimated
09:13AM 26.5820 109.8631 173° South  Level Estimated
09:14AM 26.4771 109.8768 173° South  Level Estimated
09:15AM 26.3722 109.8904 173° South  Level Estimated
09:16AM 26.2673 109.9041 173° South  Level Estimated
09:17AM 26.1623 109.9177 173° South  Level Estimated
09:18AM 26.0574 109.9313 173° South  Level Estimated
09:19AM 25.9525 109.9449 173° South  Level Estimated
09:20AM 25.8475 109.9584 173° South  Level Estimated
09:21AM 25.7426 109.9720 173° South  Level Estimated
09:22AM 25.6376 109.9855 173° South  Level Estimated
09:23AM 25.5327 109.9989 173° South  Level Estimated
09:24AM 25.4278 110.0124 173° South  Level Estimated
09:25AM 25.3191 110.0263 173° South  Level Estimated
09:26AM 25.2181 110.0392 173° South  Level Estimated
09:27AM 25.2181 110.0392 North  Level Estimated
09:28AM 25.2181 110.0392 North  Level Estimated
09:29AM 25.2181 110.0392 North  Level Estimated
09:30AM 25.2181 110.0392 North  Level Estimated
09:31AM 25.2181 110.0392 North  Level Estimated
09:32AM 25.2181 110.0392 North  Level Estimated
09:33AM 25.2181 110.0392 North  Level Estimated
09:34AM 25.2181 110.0392 North  Level Estimated
09:35AM 25.2181 110.0392 North  Level Estimated
09:36AM 25.2181 110.0392 North  Level Estimated
09:37AM 25.2181 110.0392 North  Level Estimated
09:38AM 25.2181 110.0392 North  Level Estimated
09:39AM 25.2181 110.0392 North  Level Estimated